Time;durP1;ratioP1;P1;durP2;ratioP2;P2;SDS_P1;SDS_P2;PMS_P1;PMS_P2;Temp;Humidity;BMP_temperature;BMP_pressure;BME280_temperature;BME280_humidity;BME280_pressure;Samples;Min_cycle;Max_cycle;Signal;HPM_P1;HPM_P2
2022/09/08 00:01:40;;;;;;;7.40;6.70;;;18.30;99.90;;;;;;5048259;28;20070;-73
2022/09/08 00:04:06;;;;;;;8.52;6.90;;;19.70;99.90;;;;;;5046440;28;20120;-73
2022/09/08 00:06:32;;;;;;;8.48;6.55;;;18.10;99.90;;;;;;5048347;28;20073;-73
2022/09/08 00:08:59;;;;;;;7.60;6.57;;;18.20;99.90;;;;;;5030103;28;20048;-73
2022/09/08 00:11:28;;;;;;;8.52;6.15;;;19.80;99.90;;;;;;5046690;28;20120;-73
2022/09/08 00:13:57;;;;;;;10.48;7.10;;;19.90;99.90;;;;;;5029785;28;20041;-73
2022/09/08 00:16:23;;;;;;;9.70;7.57;;;19.90;99.90;;;;;;5047910;28;20499;-74
2022/09/08 00:18:50;;;;;;;9.32;6.68;;;18.20;99.90;;;;;;5030351;28;20037;-74
2022/09/08 00:21:18;;;;;;;10.85;7.72;;;19.10;99.90;;;;;;5037534;28;20052;-73
2022/09/08 00:23:43;;;;;;;8.35;7.18;;;18.00;99.90;;;;;;5032982;28;20103;-73
2022/09/08 00:26:09;;;;;;;9.73;8.15;;;18.20;99.90;;;;;;5033248;28;20488;-74
2022/09/08 00:28:35;;;;;;;11.50;8.15;;;18.10;99.90;;;;;;5034492;28;20122;-73
2022/09/08 00:31:01;;;;;;;10.05;7.97;;;18.10;99.90;;;;;;5033251;28;20529;-73
2022/09/08 00:33:29;;;;;;;9.07;8.18;;;18.10;99.90;;;;;;5033215;28;20529;-73
2022/09/08 00:35:54;;;;;;;10.20;8.93;;;18.30;99.90;;;;;;5033368;28;20073;-73
2022/09/08 00:38:21;;;;;;;11.45;8.88;;;18.00;99.90;;;;;;5033639;28;20064;-73
2022/09/08 00:40:49;;;;;;;11.90;8.98;;;18.40;99.90;;;;;;5017165;28;20041;-73
2022/09/08 00:43:33;;;;;;;13.68;9.85;;;18.60;99.90;;;;;;5032912;28;20036;-74
2022/09/08 00:46:12;;;;;;;15.20;10.70;;;18.00;99.90;;;;;;5034096;28;20076;-73
2022/09/08 00:48:44;;;;;;;12.73;10.30;;;17.90;99.90;;;;;;5016358;28;20041;-73
2022/09/08 00:51:09;;;;;;;11.97;9.50;;;19.20;99.90;;;;;;5032793;28;20033;-73
2022/09/08 00:53:40;;;;;;;12.20;10.45;;;18.20;99.90;;;;;;5032937;28;20048;-74
2022/09/08 00:56:06;;;;;;;13.80;11.65;;;18.10;99.90;;;;;;5033621;28;20041;-74
2022/09/08 00:58:37;;;;;;;14.73;13.23;;;18.90;99.90;;;;;;5032778;28;20041;-73
2022/09/08 01:01:04;;;;;;;14.30;11.85;;;18.70;99.90;;;;;;5032594;28;20049;-73
2022/09/08 01:03:31;;;;;;;17.67;13.80;;;17.90;99.90;;;;;;5032641;28;20037;-73
2022/09/08 01:06:19;;;;;;;14.55;12.07;;;18.00;99.90;;;;;;5016054;28;20441;-73
2022/09/08 01:15:00;;;;;;;20.15;14.20;;;17.20;99.90;;;;;;5032080;28;20126;-74
2022/09/08 01:17:29;;;;;;;17.65;14.02;;;18.00;99.90;;;;;;5033887;28;20037;-73
2022/09/08 01:19:56;;;;;;;15.40;13.80;;;17.90;99.90;;;;;;5032628;28;20045;-74
2022/09/08 01:22:49;;;;;;;18.17;15.02;;;18.00;99.90;;;;;;5031992;28;20076;-73
2022/09/08 01:26:01;;;;;;;20.05;16.33;;;18.00;99.90;;;;;;5031731;28;20127;-73
2022/09/08 01:28:46;;;;;;;17.85;14.05;;;18.00;99.90;;;;;;5032027;28;20045;-73
2022/09/08 01:31:13;;;;;;;17.67;15.77;;;18.20;99.90;;;;;;5032064;28;20048;-73
2022/09/08 01:33:40;;;;;;;21.02;17.92;;;18.50;99.90;;;;;;5032104;28;20075;-74
2022/09/08 01:36:11;;;;;;;18.25;15.98;;;18.10;99.90;;;;;;5032167;28;20100;-73
2022/09/08 01:38:37;;;;;;;19.75;17.70;;;18.10;99.90;;;;;;5031933;28;20407;-73
2022/09/08 01:41:03;;;;;;;21.67;17.92;;;18.00;99.90;;;;;;5031838;28;20037;-73
2022/09/08 01:43:28;;;;;;;19.73;17.65;;;18.00;99.90;;;;;;5033087;28;20049;-73
2022/09/08 01:45:56;;;;;;;20.98;17.65;;;18.10;99.90;;;;;;5031513;28;20040;-73
2022/09/08 01:48:22;;;;;;;19.20;15.75;;;17.90;99.90;;;;;;5031660;28;20357;-73
2022/09/08 01:50:47;;;;;;;23.30;17.83;;;18.90;99.90;;;;;;5015192;28;20037;-73
2022/09/08 01:53:13;;;;;;;22.10;17.20;;;18.10;99.90;;;;;;5031862;28;20041;-73
2022/09/08 01:55:38;;;;;;;21.23;18.52;;;18.00;99.90;;;;;;5032615;28;20080;-73
2022/09/08 01:58:04;;;;;;;23.02;18.38;;;18.10;99.90;;;;;;5031942;28;20121;-75
2022/09/08 02:00:30;;;;;;;20.25;16.08;;;18.00;99.90;;;;;;5031508;28;20054;-73
2022/09/08 02:02:55;;;;;;;22.02;17.75;;;18.10;99.90;;;;;;5015068;28;20041;-74
2022/09/08 02:05:21;;;;;;;21.73;18.90;;;18.20;99.90;;;;;;5032485;28;20064;-74
2022/09/08 02:07:47;;;;;;;24.45;20.33;;;19.40;99.90;;;;;;5031347;28;20494;-75
2022/09/08 02:10:13;;;;;;;24.42;21.02;;;17.90;99.90;;;;;;5014752;28;20057;-73
2022/09/08 02:12:39;;;;;;;24.50;20.70;;;18.00;99.90;;;;;;5031222;28;20087;-73
2022/09/08 02:15:06;;;;;;;21.92;18.70;;;18.20;99.90;;;;;;5031181;28;20041;-73
2022/09/08 02:17:31;;;;;;;23.65;21.15;;;18.10;99.90;;;;;;5031132;28;20045;-74
2022/09/08 02:19:57;;;;;;;24.45;20.33;;;18.10;99.90;;;;;;5031200;28;20049;-73
2022/09/08 02:22:23;;;;;;;25.17;22.38;;;18.20;99.90;;;;;;5031109;28;20390;-73
2022/09/08 02:24:48;;;;;;;20.92;18.67;;;18.30;99.90;;;;;;5032128;28;20045;-73
2022/09/08 02:27:14;;;;;;;24.27;21.73;;;18.30;99.90;;;;;;5031264;28;20052;-73
2022/09/08 02:29:40;;;;;;;24.67;20.60;;;18.30;99.90;;;;;;5032211;28;20038;-74
2022/09/08 02:32:05;;;;;;;25.08;21.30;;;18.10;99.90;;;;;;5031080;28;20181;-73
2022/09/08 02:34:31;;;;;;;21.48;19.17;;;18.30;99.90;;;;;;5014241;28;20087;-73
2022/09/08 02:36:56;;;;;;;26.02;22.58;;;18.10;99.90;;;;;;5014522;28;20044;-73
2022/09/08 02:39:23;;;;;;;24.08;21.48;;;18.30;99.90;;;;;;5014994;28;20042;-73
2022/09/08 02:41:48;;;;;;;25.48;21.88;;;18.20;99.90;;;;;;5030997;28;20503;-74
2022/09/08 02:44:14;;;;;;;27.85;23.55;;;18.20;99.90;;;;;;5031671;28;20079;-73
2022/09/08 02:46:41;;;;;;;25.23;21.67;;;18.80;99.90;;;;;;5030720;28;20048;-73
2022/09/08 02:49:08;;;;;;;22.73;19.85;;;18.10;99.90;;;;;;5030659;28;20037;-73
2022/09/08 02:51:33;;;;;;;27.20;22.80;;;18.40;99.90;;;;;;5014180;28;20041;-73
2022/09/08 02:53:59;;;;;;;25.55;21.52;;;18.20;99.90;;;;;;5030174;28;20063;-73
2022/09/08 02:56:25;;;;;;;26.13;22.73;;;19.20;99.90;;;;;;5014459;28;20107;-73
2022/09/08 02:58:51;;;;;;;27.13;22.63;;;18.00;99.90;;;;;;5014119;28;20120;-73
2022/09/08 03:01:17;;;;;;;23.90;20.85;;;18.00;99.90;;;;;;5031738;28;20064;-73
2022/09/08 03:03:43;;;;;;;26.00;21.65;;;18.10;99.90;;;;;;5030622;28;20045;-73
2022/09/08 03:06:09;;;;;;;23.08;20.50;;;19.40;99.90;;;;;;5030611;28;20072;-73
2022/09/08 03:08:35;;;;;;;26.35;22.05;;;18.20;99.90;;;;;;5030550;28;20503;-73
2022/09/08 03:11:02;;;;;;;24.42;20.35;;;18.10;99.90;;;;;;5013930;28;20041;-73
2022/09/08 03:13:28;;;;;;;27.73;22.38;;;18.10;99.90;;;;;;5030392;28;20045;-74
2022/09/08 03:15:54;;;;;;;28.63;25.58;;;18.00;99.90;;;;;;5030229;28;20040;-72
2022/09/08 03:18:20;;;;;;;30.50;24.05;;;18.20;99.90;;;;;;5032047;28;20037;-73
2022/09/08 03:20:46;;;;;;;28.25;23.00;;;19.80;99.90;;;;;;5032200;28;20037;-73
2022/09/08 03:23:19;;;;;;;28.95;24.05;;;19.40;99.90;;;;;;5014432;28;20033;-73
2022/09/08 03:25:47;;;;;;;29.70;23.95;;;18.40;99.90;;;;;;5030850;28;20033;-73
2022/09/08 03:28:21;;;;;;;28.23;23.88;;;18.30;99.90;;;;;;5013949;28;20030;-73
2022/09/08 03:30:47;;;;;;;31.23;23.92;;;18.10;99.90;;;;;;5030771;28;20331;-73
2022/09/08 03:33:13;;;;;;;31.13;24.85;;;18.10;99.90;;;;;;5030178;28;20120;-73
2022/09/08 03:35:38;;;;;;;25.10;22.38;;;18.20;99.90;;;;;;5030026;28;20037;-73
2022/09/08 03:38:06;;;;;;;27.52;24.58;;;19.80;99.90;;;;;;5013745;28;20406;-73
2022/09/08 03:40:33;;;;;;;27.25;24.35;;;18.40;99.90;;;;;;5030298;28;20041;-73
2022/09/08 03:42:58;;;;;;;28.67;25.58;;;18.00;99.90;;;;;;5030340;28;20096;-73
2022/09/08 03:45:24;;;;;;;27.45;24.08;;;18.20;99.90;;;;;;5029798;28;20486;-73
2022/09/08 03:47:49;;;;;;;29.60;24.98;;;19.30;99.90;;;;;;5031749;28;20044;-73
2022/09/08 03:50:16;;;;;;;30.30;26.13;;;18.20;99.90;;;;;;5030834;28;20073;-73
2022/09/08 03:52:42;;;;;;;29.75;25.63;;;18.20;99.90;;;;;;5031939;28;20045;-73
2022/09/08 03:55:09;;;;;;;29.55;25.65;;;18.80;99.90;;;;;;5031116;28;20403;-73
2022/09/08 03:57:36;;;;;;;29.67;26.42;;;18.10;99.90;;;;;;5034742;28;20076;-72
2022/09/08 04:00:04;;;;;;;31.75;26.58;;;19.30;99.90;;;;;;5034986;28;20046;-72
2022/09/08 04:02:30;;;;;;;33.95;23.33;;;18.10;99.90;;;;;;5034359;28;20033;-72
2022/09/08 04:04:57;;;;;;;28.55;24.33;;;19.00;99.90;;;;;;5034289;28;20103;-72
2022/09/08 04:07:27;;;;;;;26.80;23.25;;;18.30;99.90;;;;;;5034376;28;20506;-72
2022/09/08 04:09:53;;;;;;;28.17;23.95;;;18.10;99.90;;;;;;5033829;28;20042;-72
2022/09/08 04:12:19;;;;;;;29.80;24.85;;;18.20;99.90;;;;;;5016978;28;20573;-72
2022/09/08 04:14:47;;;;;;;29.65;26.65;;;18.90;99.90;;;;;;5033131;28;20522;-72
2022/09/08 04:17:13;;;;;;;32.80;28.83;;;18.20;99.90;;;;;;5035178;28;20064;-72
2022/09/08 04:19:39;;;;;;;31.48;26.92;;;18.50;99.90;;;;;;5035407;28;20499;-72
2022/09/08 04:22:06;;;;;;;29.38;26.13;;;18.10;99.90;;;;;;5035803;28;20037;-72
2022/09/08 04:24:33;;;;;;;31.55;25.98;;;18.50;99.90;;;;;;5034962;28;20037;-73
2022/09/08 04:26:59;;;;;;;32.95;27.52;;;18.00;99.90;;;;;;5034358;28;20051;-72
2022/09/08 04:29:24;;;;;;;31.77;26.73;;;19.80;99.90;;;;;;5035142;28;20037;-73
2022/09/08 04:31:50;;;;;;;30.98;27.33;;;18.20;99.90;;;;;;5034507;28;20029;-73
2022/09/08 04:34:16;;;;;;;30.70;26.10;;;19.20;99.90;;;;;;5016322;28;20039;-72
2022/09/08 04:36:43;;;;;;;31.35;26.35;;;18.10;99.90;;;;;;5034316;28;20048;-72
2022/09/08 04:39:09;;;;;;;29.90;23.90;;;18.00;99.90;;;;;;5032967;28;20099;-72
2022/09/08 04:41:35;;;;;;;27.60;23.88;;;18.00;99.90;;;;;;5033035;28;20045;-72
2022/09/08 04:44:02;;;;;;;27.00;23.83;;;18.00;99.90;;;;;;5016095;28;20041;-72
2022/09/08 04:46:29;;;;;;;27.30;23.35;;;18.00;99.90;;;;;;5033001;28;20038;-73
2022/09/08 04:48:55;;;;;;;29.75;23.77;;;18.10;99.90;;;;;;5032673;28;20046;-72
2022/09/08 04:51:21;;;;;;;24.50;21.88;;;18.10;99.90;;;;;;5032768;28;20091;-72
2022/09/08 04:53:48;;;;;;;25.90;19.95;;;17.80;99.90;;;;;;5032491;28;20041;-72
2022/09/08 04:56:15;;;;;;;27.55;22.00;;;18.10;99.90;;;;;;5032886;28;20045;-72
2022/09/08 04:58:42;;;;;;;24.73;22.02;;;18.60;99.90;;;;;;5032669;28;20068;-72
2022/09/08 05:01:14;;;;;;;34.10;28.40;;;18.10;99.90;;;;;;5033155;28;20627;-73
2022/09/08 05:03:40;;;;;;;33.67;27.75;;;17.90;99.90;;;;;;5016228;28;20048;-73
2022/09/08 05:06:07;;;;;;;34.30;29.30;;;19.20;99.90;;;;;;5032161;28;20045;-73
2022/09/08 05:08:33;;;;;;;37.65;30.90;;;18.00;99.90;;;;;;5033838;28;20037;-73
2022/09/08 05:11:00;;;;;;;38.78;30.65;;;17.80;99.90;;;;;;5032484;28;20041;-73
2022/09/08 05:13:26;;;;;;;37.08;29.55;;;17.80;99.90;;;;;;5032580;28;20060;-73
2022/09/08 05:15:51;;;;;;;35.95;30.92;;;17.90;99.90;;;;;;5033643;28;20030;-73
2022/09/08 05:18:17;;;;;;;38.58;31.88;;;18.00;99.90;;;;;;5032289;28;20038;-73
2022/09/08 05:20:43;;;;;;;37.28;30.85;;;19.50;99.90;;;;;;5033347;28;20048;-73
2022/09/08 05:23:09;;;;;;;44.15;32.45;;;17.70;99.90;;;;;;5041835;22;20051;-72
2022/09/08 05:25:34;;;;;;;42.20;32.92;;;17.90;99.90;;;;;;5051224;28;20410;-70
2022/09/08 05:28:01;;;;;;;40.08;33.47;;;18.30;99.90;;;;;;5051896;28;20037;-71
2022/09/08 05:30:26;;;;;;;43.92;33.15;;;17.70;99.90;;;;;;5034875;28;20045;-72
2022/09/08 05:32:52;;;;;;;37.53;31.50;;;19.50;99.90;;;;;;5052935;28;20037;-72
2022/09/08 05:35:17;;;;;;;39.97;31.85;;;17.50;99.90;;;;;;5051117;28;20037;-72
2022/09/08 05:37:43;;;;;;;38.83;32.30;;;17.80;99.90;;;;;;5053013;28;20040;-72
2022/09/08 05:40:11;;;;;;;40.15;31.95;;;17.60;99.90;;;;;;5051324;28;20040;-72
2022/09/08 05:42:36;;;;;;;40.30;32.30;;;18.20;99.90;;;;;;5035205;28;20378;-72
2022/09/08 05:45:02;;;;;;;41.70;35.10;;;17.70;99.90;;;;;;5052275;28;20036;-73
2022/09/08 05:47:28;;;;;;;39.90;32.85;;;17.80;99.90;;;;;;5051352;28;20048;-72
2022/09/08 05:49:53;;;;;;;44.97;34.65;;;17.80;99.90;;;;;;5051065;28;20130;-72
2022/09/08 05:52:19;;;;;;;41.75;32.35;;;17.80;99.90;;;;;;5052115;28;20140;-72
2022/09/08 05:54:44;;;;;;;41.92;31.35;;;17.90;99.90;;;;;;5031781;28;20194;-72
2022/09/08 05:57:10;;;;;;;40.40;33.90;;;17.90;99.90;;;;;;5059516;28;20033;-72
2022/09/08 05:59:35;;;;;;;37.97;30.25;;;18.10;99.90;;;;;;5057324;28;20041;-72
2022/09/08 06:02:01;;;;;;;32.05;28.05;;;18.00;99.90;;;;;;5062197;28;20042;-73
2022/09/08 06:04:27;;;;;;;38.60;29.35;;;18.70;99.90;;;;;;5059497;28;20127;-71
2022/09/08 06:06:52;;;;;;;35.97;27.15;;;18.00;99.90;;;;;;5054476;28;20379;-72
2022/09/08 06:09:18;;;;;;;37.75;27.20;;;19.80;99.90;;;;;;5056665;28;20036;-71
2022/09/08 06:11:44;;;;;;;40.05;30.05;;;17.90;99.90;;;;;;5057676;28;20064;-72
2022/09/08 06:14:10;;;;;;;38.72;29.85;;;19.60;99.90;;;;;;5060068;28;20082;-70
2022/09/08 06:16:36;;;;;;;32.83;28.30;;;17.90;99.90;;;;;;5041662;28;20040;-71
2022/09/08 06:19:02;;;;;;;34.17;28.80;;;17.80;99.90;;;;;;5041781;28;20051;-71
2022/09/08 06:21:30;;;;;;;41.78;29.73;;;17.50;99.90;;;;;;5058425;28;20068;-71
2022/09/08 06:24:02;;;;;;;37.90;31.73;;;18.80;99.90;;;;;;5047360;28;20119;-72
2022/09/08 06:26:51;;;;;;;48.67;37.97;;;17.60;99.90;;;;;;5050271;28;20045;-71
2022/09/08 06:29:59;;;;;;;41.78;34.15;;;17.70;99.90;;;;;;5057051;28;20471;-72
2022/09/08 06:32:46;;;;;;;47.55;37.10;;;17.70;99.90;;;;;;5054448;28;20131;-72
2022/09/08 06:35:27;;;;;;;53.90;38.53;;;17.50;99.90;;;;;;5068829;28;20040;-72
2022/09/08 06:38:02;;;;;;;46.80;35.20;;;17.70;99.90;;;;;;5071552;28;20040;-71
2022/09/08 06:40:51;;;;;;;45.72;33.90;;;17.70;99.90;;;;;;5050664;28;20044;-71
2022/09/08 06:43:23;;;;;;;39.92;32.47;;;17.70;99.90;;;;;;5048064;28;20051;-71
2022/09/08 06:45:52;;;;;;;45.28;35.13;;;17.80;99.90;;;;;;5048584;28;20124;-71
2022/09/08 06:48:25;;;;;;;38.08;32.97;;;17.50;99.90;;;;;;5050898;28;20116;-71
2022/09/08 06:51:09;;;;;;;;;;;17.70;99.90;;;;;;5050493;28;20083;-71
2022/09/08 06:53:46;;;;;;;48.95;37.55;;;17.70;99.90;;;;;;5033226;28;20416;-71
2022/09/08 06:56:38;;;;;;;47.88;38.97;;;17.60;99.90;;;;;;5049513;28;20037;-71
2022/09/08 06:59:17;;;;;;;44.72;36.70;;;17.60;99.90;;;;;;5049973;28;20102;-71
2022/09/08 07:01:54;;;;;;;45.35;34.58;;;17.80;99.90;;;;;;5051376;28;20049;-71
2022/09/08 07:04:30;;;;;;;55.92;39.03;;;17.70;99.90;;;;;;5049770;28;20186;-71
2022/09/08 07:07:05;;;;;;;50.95;38.45;;;17.60;99.90;;;;;;5049735;28;20411;-71
2022/09/08 07:10:07;;;;;;;43.75;34.15;;;18.50;99.90;;;;;;5049804;28;20041;-71
2022/09/08 07:13:17;;;;;;;48.25;34.72;;;17.60;99.90;;;;;;5049755;28;20491;-74
2022/09/08 07:15:56;;;;;;;38.95;31.17;;;17.50;99.90;;;;;;5049586;28;20123;-71
2022/09/08 07:18:47;;;;;;;41.55;29.70;;;17.50;99.90;;;;;;5033364;28;20522;-71
2022/09/08 07:21:27;;;;;;;39.78;31.55;;;17.50;99.90;;;;;;5050022;28;20067;-71
2022/09/08 07:23:58;;;;;;;41.92;30.60;;;17.40;99.90;;;;;;5050595;28;20053;-70
2022/09/08 07:26:41;;;;;;;43.22;34.22;;;17.60;99.90;;;;;;5033577;28;20406;-71
2022/09/08 07:29:15;;;;;;;43.75;33.63;;;17.70;99.90;;;;;;5050062;28;20048;-71
2022/09/08 07:31:46;;;;;;;36.50;29.55;;;17.30;99.90;;;;;;5053679;28;20037;-71
2022/09/08 07:34:18;;;;;;;36.17;28.40;;;18.70;99.90;;;;;;5054563;28;20047;-71
2022/09/08 07:37:05;;;;;;;36.85;28.45;;;18.20;99.90;;;;;;5054011;28;20037;-71
2022/09/08 07:39:42;;;;;;;28.85;24.75;;;17.50;99.90;;;;;;5053757;28;20095;-70
2022/09/08 07:42:15;;;;;;;30.27;25.80;;;17.60;99.90;;;;;;5054012;28;20482;-72
2022/09/08 07:44:41;;;;;;;33.80;25.73;;;17.60;99.90;;;;;;5052998;28;20048;-71
2022/09/08 07:47:23;;;;;;;32.38;26.17;;;17.40;99.90;;;;;;5053480;28;20410;-72
2022/09/08 07:50:13;;;;;;;33.88;27.23;;;17.40;99.90;;;;;;5053401;28;20518;-73
2022/09/08 07:52:58;;;;;;;30.05;22.83;;;17.50;99.90;;;;;;5053649;28;20487;-73
2022/09/08 07:55:37;;;;;;;32.28;25.73;;;17.70;99.90;;;;;;5053110;28;20049;-72
2022/09/08 07:58:31;;;;;;;33.15;25.23;;;17.50;99.90;;;;;;5051935;28;20052;-71
2022/09/08 08:01:23;;;;;;;36.25;26.05;;;17.50;99.90;;;;;;5053241;28;20049;-71
2022/09/08 08:04:15;;;;;;;32.80;25.17;;;17.60;99.90;;;;;;5036408;28;20076;-75
2022/09/08 08:06:48;;;;;;;34.80;24.23;;;17.40;99.90;;;;;;5053224;28;20037;-71
2022/09/08 08:09:45;;;;;;;31.55;22.55;;;18.80;99.90;;;;;;5054825;28;20037;-71
2022/09/08 08:12:35;;;;;;;22.52;16.00;;;17.30;99.90;;;;;;5052922;28;20562;-71
2022/09/08 08:15:06;;;;;;;10.00;8.35;;;17.40;99.90;;;;;;5052707;28;20063;-72
2022/09/08 08:17:39;;;;;;;6.53;4.88;;;17.40;99.90;;;;;;5054332;28;20052;-70
2022/09/08 08:20:26;;;;;;;7.30;3.42;;;18.10;99.90;;;;;;5052830;28;20437;-70
2022/09/08 08:23:10;;;;;;;3.17;1.80;;;16.80;99.90;;;;;;5052114;28;20578;-71
2022/09/08 08:26:03;;;;;;;5.78;1.92;;;16.80;99.90;;;;;;5053094;28;20495;-71
2022/09/08 08:28:39;;;;;;;2.63;1.83;;;16.80;99.90;;;;;;5053301;28;20044;-71
2022/09/08 08:31:21;;;;;;;2.22;1.00;;;16.60;99.90;;;;;;5052274;28;20142;-71
2022/09/08 08:33:51;;;;;;;9.60;3.05;;;16.60;99.90;;;;;;5051330;28;20510;-72
2022/09/08 08:36:21;;;;;;;2.83;1.63;;;16.70;99.90;;;;;;5052708;28;20292;-73
2022/09/08 08:39:21;;;;;;;3.58;1.48;;;16.40;99.90;;;;;;5054009;28;20041;-73
2022/09/08 08:41:46;;;;;;;4.88;1.60;;;16.70;99.90;;;;;;5047103;28;20049;-71
2022/09/08 08:44:41;;;;;;;3.05;1.60;;;16.60;99.90;;;;;;5052386;28;20048;-71
2022/09/08 08:47:43;;;;;;;2.90;1.92;;;16.20;99.90;;;;;;5052488;28;20128;-71
2022/09/08 08:50:34;;;;;;;1.67;1.40;;;16.50;99.90;;;;;;5035928;28;20388;-71
2022/09/08 08:53:39;;;;;;;2.45;1.70;;;16.20;99.90;;;;;;5052495;28;20040;-68
2022/09/08 08:56:08;;;;;;;2.47;1.60;;;18.40;99.90;;;;;;5035765;28;20056;-71
2022/09/08 08:58:49;;;;;;;5.32;1.60;;;16.10;99.90;;;;;;5052673;28;20120;-72
2022/09/08 09:01:39;;;;;;;2.35;1.35;;;16.10;99.90;;;;;;5052668;28;20394;-72
2022/09/08 09:04:32;;;;;;;1.70;1.20;;;16.10;99.90;;;;;;5052228;28;20395;-74
2022/09/08 09:07:46;;;;;;;1.90;1.33;;;15.90;99.90;;;;;;5053560;28;20470;-72
2022/09/08 09:10:48;;;;;;;4.15;1.60;;;16.30;99.90;;;;;;5035459;28;20045;-70
2022/09/08 09:13:37;;;;;;;2.88;2.50;;;16.50;99.90;;;;;;5053506;28;20045;-70
2022/09/08 09:16:12;;;;;;;2.60;1.80;;;16.40;99.90;;;;;;5051747;28;20513;-69
2022/09/08 09:19:07;;;;;;;8.13;2.50;;;16.50;99.90;;;;;;5049876;28;20403;-70
2022/09/08 09:22:08;;;;;;;1.88;1.40;;;16.40;99.90;;;;;;5051912;28;20041;-70
2022/09/08 09:25:10;;;;;;;4.55;1.73;;;16.50;99.90;;;;;;5051653;28;20052;-70
2022/09/08 09:27:46;;;;;;;5.35;1.77;;;16.60;99.90;;;;;;5053071;28;20550;-70
2022/09/08 09:30:12;;;;;;;4.20;2.30;;;16.70;99.90;;;;;;5053077;28;20361;-70
2022/09/08 09:33:03;;;;;;;4.78;2.05;;;16.80;99.90;;;;;;5051447;28;20507;-70
2022/09/08 09:35:54;;;;;;;2.13;1.85;;;16.60;99.90;;;;;;5051520;28;20044;-71
2022/09/08 09:38:56;;;;;;;3.92;2.00;;;17.90;99.90;;;;;;5053237;28;20111;-71
2022/09/08 09:41:51;;;;;;;3.58;2.38;;;16.80;99.90;;;;;;5053073;28;20143;-71
2022/09/08 09:44:54;;;;;;;3.42;1.63;;;17.70;99.90;;;;;;5050896;28;20045;-74
2022/09/08 09:47:29;;;;;;;3.53;2.50;;;16.90;99.90;;;;;;5034878;28;20406;-71
2022/09/08 09:50:20;;;;;;;4.15;2.70;;;16.90;99.90;;;;;;5051353;28;20053;-71
2022/09/08 09:52:58;;;;;;;4.25;2.47;;;17.10;99.90;;;;;;5052062;28;20052;-72
2022/09/08 09:55:32;;;;;;;4.20;2.40;;;18.80;99.90;;;;;;5051786;28;20522;-73
2022/09/08 09:58:22;;;;;;;4.57;2.72;;;16.90;99.90;;;;;;5051048;28;20033;-71
2022/09/08 10:00:59;;;;;;;4.78;3.05;;;17.10;99.90;;;;;;5051499;28;20045;-71
2022/09/08 10:03:44;;;;;;;4.43;2.85;;;16.80;99.90;;;;;;5051285;28;20077;-71
2022/09/08 10:06:30;;;;;;;3.92;2.70;;;16.80;99.90;;;;;;5051092;28;20044;-72
2022/09/08 10:09:11;;;;;;;3.28;2.72;;;16.90;99.90;;;;;;5034568;28;20503;-72
2022/09/08 10:12:13;;;;;;;5.65;3.08;;;17.00;99.90;;;;;;5050607;28;20460;-73
2022/09/08 10:14:44;;;;;;;5.43;3.58;;;17.00;99.90;;;;;;5051935;28;20129;-73
2022/09/08 10:17:43;;;;;;;3.58;3.28;;;17.10;99.90;;;;;;5050910;28;20376;-71
2022/09/08 10:20:30;;;;;;;5.07;3.20;;;17.10;99.90;;;;;;5050943;28;20052;-70
2022/09/08 10:23:30;;;;;;;5.40;3.75;;;17.00;99.90;;;;;;5050372;28;20041;-70
2022/09/08 10:26:23;;;;;;;4.43;3.63;;;17.20;99.90;;;;;;5033590;28;20498;-71
2022/09/08 10:29:17;;;;;;;6.25;3.97;;;17.20;99.90;;;;;;5051653;28;20072;-71
2022/09/08 10:32:19;;;;;;;6.82;4.15;;;17.20;99.90;;;;;;5050801;28;20045;-71
2022/09/08 10:35:16;;;;;;;5.88;3.72;;;17.40;99.90;;;;;;5050296;28;20044;-71
2022/09/08 10:38:03;;;;;;;4.47;3.58;;;17.10;99.90;;;;;;5050350;28;20076;-73
2022/09/08 10:40:39;;;;;;;4.60;3.30;;;17.40;99.90;;;;;;5051799;28;20045;-70
2022/09/08 10:43:47;;;;;;;3.90;2.72;;;17.60;99.90;;;;;;5051454;28;20047;-70
2022/09/08 10:46:40;;;;;;;2.95;2.20;;;17.30;99.90;;;;;;5050304;28;20049;-71
2022/09/08 10:49:53;;;;;;;5.47;2.72;;;17.60;99.90;;;;;;5050196;28;20082;-71
2022/09/08 10:52:47;;;;;;;3.63;2.30;;;17.40;99.90;;;;;;5050282;28;20068;-72
2022/09/08 10:55:27;;;;;;;3.63;2.40;;;17.40;99.90;;;;;;5031337;28;20041;-71
2022/09/08 10:58:32;;;;;;;4.93;2.05;;;17.50;99.90;;;;;;5030061;28;20044;-71
2022/09/08 11:01:25;;;;;;;3.40;2.00;;;17.20;99.90;;;;;;5029360;28;20096;-71
2022/09/08 11:04:18;;;;;;;4.90;2.55;;;17.80;99.90;;;;;;5047591;28;20555;-72
2022/09/08 11:07:21;;;;;;;4.70;2.20;;;17.50;99.90;;;;;;5042606;28;20119;-72
2022/09/08 11:10:08;;;;;;;3.97;2.15;;;17.40;99.90;;;;;;5058596;28;20514;-71
2022/09/08 11:13:12;;;;;;;3.30;2.28;;;17.50;99.90;;;;;;5053978;28;20040;-72
2022/09/08 11:15:40;;;;;;;9.65;2.60;;;19.20;99.90;;;;;;5056327;28;20082;-71
2022/09/08 11:18:18;;;;;;;4.80;2.78;;;17.50;99.90;;;;;;5050383;28;20053;-71
2022/09/08 11:20:57;;;;;;;4.43;2.70;;;17.40;99.90;;;;;;5048920;28;20079;-70
2022/09/08 11:23:57;;;;;;;5.85;2.42;;;17.50;99.90;;;;;;5076688;22;20056;-71
2022/09/08 11:26:35;;;;;;;5.00;2.90;;;17.50;99.90;;;;;;5021779;28;20045;-72
2022/09/08 11:29:11;;;;;;;6.53;2.95;;;17.70;99.90;;;;;;5008707;28;20545;-70
2022/09/08 11:31:57;;;;;;;3.45;3.00;;;19.40;99.90;;;;;;5025731;28;20144;-71
2022/09/08 11:34:44;;;;;;;5.30;2.72;;;18.00;99.90;;;;;;5009842;28;20507;-71
2022/09/08 11:37:28;;;;;;;6.63;3.00;;;17.90;99.90;;;;;;5000774;28;20041;-72
2022/09/08 11:40:24;;;;;;;7.85;3.17;;;17.80;99.90;;;;;;5009719;28;20046;-72
2022/09/08 11:43:14;;;;;;;6.85;3.67;;;17.80;99.90;;;;;;5009869;28;20095;-71
2022/09/08 11:46:04;;;;;;;5.45;3.30;;;17.70;99.90;;;;;;4988398;28;20035;-71
2022/09/08 11:48:39;;;;;;;8.48;3.42;;;17.70;99.90;;;;;;4989732;28;20072;-72
2022/09/08 11:51:33;;;;;;;7.03;3.67;;;17.60;99.90;;;;;;4990569;28;20105;-72
2022/09/08 11:54:17;;;;;;;4.55;3.63;;;17.60;99.90;;;;;;4990594;28;21211;-71
2022/09/08 11:56:43;;;;;;;4.13;3.05;;;17.80;99.90;;;;;;5006352;28;20560;-72
2022/09/08 12:00:05;;;;;;;5.50;4.45;;;17.80;99.90;;;;;;4990545;28;20146;-72
2022/09/08 12:02:41;;;;;;;6.65;4.13;;;18.00;99.90;;;;;;4911085;29;20075;-71
2022/09/08 12:05:19;;;;;;;5.78;3.97;;;17.90;99.90;;;;;;4888724;29;20083;-72
2022/09/08 12:08:07;;;;;;;5.97;4.10;;;17.70;99.90;;;;;;4965350;28;20053;-72
2022/09/08 12:10:56;;;;;;;6.28;3.75;;;17.90;99.90;;;;;;4989110;28;20038;-71
2022/09/08 12:13:37;;;;;;;5.35;3.85;;;18.10;99.90;;;;;;4990519;28;20070;-72
2022/09/08 12:16:23;;;;;;;4.53;3.88;;;18.10;99.90;;;;;;4990486;28;20050;-71
2022/09/08 12:19:23;;;;;;;6.07;4.28;;;17.80;99.90;;;;;;4989215;28;20062;-71
2022/09/08 12:22:21;;;;;;;6.85;4.95;;;17.70;99.90;;;;;;4980295;28;20042;-71
2022/09/08 12:25:07;;;;;;;7.05;4.45;;;18.00;99.90;;;;;;5009818;28;20050;-71
2022/09/08 12:27:59;;;;;;;5.72;4.45;;;18.00;99.90;;;;;;4995105;28;20042;-72
2022/09/08 12:31:13;;;;;;;7.50;4.43;;;18.30;99.90;;;;;;4988927;28;20053;-72
2022/09/08 12:34:09;;;;;;;7.60;5.85;;;18.20;99.90;;;;;;4993555;28;20049;-71
2022/09/08 12:36:50;;;;;;;8.32;5.28;;;18.10;99.90;;;;;;5004284;28;20467;-71
2022/09/08 12:39:34;;;;;;;6.90;4.97;;;18.20;99.90;;;;;;4993982;28;20077;-72
2022/09/08 12:42:12;;;;;;;6.25;4.53;;;19.20;99.90;;;;;;4992893;28;20049;-72
2022/09/08 12:45:11;;;;;;;6.10;4.97;;;18.30;99.90;;;;;;4994175;28;20584;-71
2022/09/08 12:47:56;;;;;;;7.60;5.32;;;18.10;99.90;;;;;;5008001;28;20503;-72
2022/09/08 12:50:31;;;;;;;7.65;4.90;;;18.40;99.90;;;;;;4991941;28;20182;-72
2022/09/08 12:53:29;;;;;;;6.55;4.72;;;18.40;99.90;;;;;;4994317;28;20053;-71
2022/09/08 12:56:14;;;;;;;7.50;5.97;;;18.30;99.90;;;;;;4993006;28;20441;-71
2022/09/08 12:58:54;;;;;;;8.02;5.38;;;18.60;99.90;;;;;;4994478;28;20038;-72
2022/09/08 13:01:29;;;;;;;8.50;6.55;;;18.60;99.90;;;;;;4993047;28;20492;-72
2022/09/08 13:03:58;;;;;;;7.57;5.97;;;20.40;99.90;;;;;;4976717;28;20038;-71
2022/09/08 13:06:48;;;;;;;9.55;6.68;;;18.50;99.90;;;;;;4993202;28;20034;-72
2022/09/08 13:09:24;;;;;;;8.15;6.30;;;20.20;99.90;;;;;;4992940;28;20070;-72
2022/09/08 13:12:11;;;;;;;7.55;5.43;;;18.70;99.90;;;;;;5009193;28;20034;-72
2022/09/08 13:15:00;;;;;;;9.15;5.88;;;18.90;99.90;;;;;;4992225;28;20492;-72
2022/09/08 13:17:52;;;;;;;6.72;5.03;;;18.90;99.90;;;;;;5006959;28;20034;-72
2022/09/08 13:20:37;;;;;;;9.40;7.25;;;18.70;99.90;;;;;;5007898;28;20046;-72
2022/09/08 13:23:29;;;;;;;8.48;7.22;;;18.80;99.90;;;;;;4993041;28;20049;-72
2022/09/08 13:26:20;;;;;;;11.60;7.07;;;18.90;99.90;;;;;;4992350;28;20113;-72
2022/09/08 13:29:05;;;;;;;8.82;7.25;;;19.20;99.90;;;;;;4983642;28;20049;-72
2022/09/08 13:32:01;;;;;;;11.10;7.97;;;19.30;99.90;;;;;;5008126;28;20517;-72